Latest Coastal Weather Observations for Dum In Mirrie

IDD60701

Issued at 1:55 pm CST Saturday 2 August 2014 (issued every 10 minutes, with the page automatically refreshed every 10 minutes)

About coastal observations | Map of coastal stations | Coastal observations for NT | Marine services | Other Formats
Station Details ID: 014277 Name: DUM IN MIRRIE AIRSTRIP Lat: -12.63 Lon: 130.37 Height: 3.5 m
Data from the previous 72 hours. | See also: Recent months at Dum In Mirrie
Date/Time
CST
Temp

°C
Wind Pressure Rain
since 9am
mm
Weather Cloud Vis
km
Sea
Height
m
Swell
Dir
 
Speed
knots
Gust
knots
hPa Trend Height
m
Period
s
Dir
02/01:30pm 30.2 N 8 12 1012.3 - 0.0 - - - - - - -
02/01:00pm 31.7 ENE 9 15 1012.7 - 0.0 - - - - - - -
02/12:30pm 30.9 ENE 9 13 1013.3 - 0.0 - - - - - - -
02/12:00pm 30.1 ENE 8 12 1014.0 - 0.0 - - - - - - -
02/11:30am 30.3 ENE 7 14 1014.5 - 0.0 - - - - - - -
02/11:00am 28.2 ENE 6 9 1014.8 - 0.0 - - - - - - -
02/10:30am 27.6 NE 6 9 1015.0 - 0.0 - - - - - - -
02/10:00am 27.5 NE 6 9 1015.3 - 0.0 - - - - - - -
02/09:30am 27.4 ENE 6 10 1015.4 - 0.0 - - - - - - -
02/09:00am 26.7 ENE 5 8 1015.3 - 0.0 - - - - - - -
02/08:30am 26.1 ENE 3 6 1014.9 - 0.0 - - - - - - -
02/08:00am 24.6 ENE 3 5 1014.6 - 0.0 - - - - - - -
02/07:30am 22.6 ENE 3 4 1014.5 - 0.0 - - - - - - -
02/07:00am 22.5 ENE 3 4 1014.2 - 0.0 - - - - - - -
02/06:30am 22.8 E 1 2 1013.9 - 0.0 - - - - - - -
02/06:00am 23.3 E 2 3 1013.6 - 0.0 - - - - - - -
02/05:30am 23.6 E 3 4 1013.4 - 0.0 - - - - - - -
02/05:00am 23.5 E 2 3 1013.3 - 0.0 - - - - - - -
02/04:30am 23.4 E 2 4 1013.0 - 0.0 - - - - - - -
02/04:00am 23.5 E 3 5 1013.0 - 0.0 - - - - - - -
02/03:30am 22.7 ENE 2 4 1013.0 - 0.0 - - - - - - -
02/03:00am 22.0 E 2 2 1013.0 - 0.0 - - - - - - -
02/02:30am 21.9 E 1 2 1013.3 - 0.0 - - - - - - -
02/02:00am 21.8 CALM 0 0 1013.5 - 0.0 - - - - - - -
02/01:30am 22.1 CALM 0 0 1013.6 - 0.0 - - - - - - -
02/01:00am 22.2 CALM 0 0 1013.6 - 0.0 - - - - - - -
02/12:30am 22.7 CALM 0 0 1013.9 - 0.0 - - - - - - -
02/12:00am 24.0 S 0 1 1013.8 - 0.0 - - - - - - -
 
Date/Time
CST
Temp

°C
Wind Pressure Rain
since 9am
mm
Weather Cloud Vis
km
Sea
Height
m
Swell
Dir
 
Speed
knots
Gust
knots
hPa Trend Height
m
Period
s
Dir
01/11:30pm 24.6 S 1 2 1013.8 - 0.0 - - - - - - -
01/11:00pm 25.2 S 2 3 1013.7 - 0.0 - - - - - - -
01/10:30pm 25.4 S 2 3 1013.5 - 0.0 - - - - - - -
01/10:00pm 25.4 SSW 2 4 1013.4 - 0.0 - - - - - - -
01/09:30pm 25.4 SW 2 3 1013.4 - 0.0 - - - - - - -
01/09:00pm 25.4 W 2 4 1013.2 - 0.0 - - - - - - -
01/08:30pm 24.9 W 2 3 1013.0 - 0.0 - - - - - - -
01/08:00pm 25.1 WNW 1 3 1012.5 - 0.0 - - - - - - -
01/07:30pm 25.5 WNW 2 3 1012.0 - 0.0 - - - - - - -
01/07:00pm 25.6 WNW 2 3 1011.7 - 0.0 - - - - - - -
01/06:30pm 26.5 NW 1 3 1011.5 - 0.0 - - - - - - -
01/06:00pm 27.1 NNW 3 5 1011.2 - 0.0 - - - - - - -
01/05:30pm 27.5 N 5 7 1010.8 - 0.0 - - - - - - -
01/05:00pm 27.7 NNW 4 7 1010.9 - 0.0 - - - - - - -
01/04:30pm 28.3 NNW 5 8 1010.9 - 0.0 - - - - - - -
01/04:00pm 28.5 N 6 10 1010.4 - 0.0 - - - - - - -
01/03:30pm 28.9 N 7 11 1010.6 - 0.0 - - - - - - -
01/03:00pm 28.8 N 6 10 1011.0 - 0.0 - - - - - - -
01/02:30pm 28.4 N 8 12 1011.5 - 0.0 - - - - - - -
01/02:00pm 29.0 N 7 11 1012.2 - 0.0 - - - - - - -
01/01:30pm 28.6 N 7 12 1012.9 - 0.0 - - - - - - -
01/01:00pm 28.6 N 7 11 1013.4 - 0.0 - - - - - - -
01/12:30pm 29.0 N 5 9 1013.9 - 0.0 - - - - - - -
01/12:00pm 27.1 N 6 9 1014.5 - 0.0 - - - - - - -
01/11:30am 29.0 NNE 5 8 1014.8 - 0.0 - - - - - - -
01/11:00am 28.7 ENE 6 9 1014.9 - 0.0 - - - - - - -
01/10:30am 28.4 ENE 6 10 1015.2 - 0.0 - - - - - - -
01/10:00am 27.7 ENE 5 7 1015.2 - 0.0 - - - - - - -
01/09:30am 27.3 E 5 7 1015.2 - 0.0 - - - - - - -
01/09:00am 26.3 NE 5 7 1014.9 - 0.0 - - - - - - -
01/08:30am 25.1 E 3 5 1014.8 - 0.0 - - - - - - -
01/08:00am 23.1 E 2 3 1014.8 - 0.0 - - - - - - -
01/07:30am 22.7 E 3 4 1014.5 - 0.0 - - - - - - -
01/07:00am 21.9 ENE 2 3 1014.2 - 0.0 - - - - - - -
01/06:30am 21.7 E 2 3 1013.9 - 0.0 - - - - - - -
01/06:00am 20.5 E 2 3 1013.7 - 0.0 - - - - - - -
01/05:30am 20.9 CALM 0 0 1013.4 - 0.0 - - - - - - -
01/05:00am 21.5 CALM 0 0 1013.2 - 0.0 - - - - - - -
01/04:30am 21.9 E 1 2 1013.2 - 0.0 - - - - - - -
01/04:00am 20.6 CALM 0 0 1013.2 - 0.0 - - - - - - -
01/03:30am 20.9 CALM 0 0 1013.1 - 0.0 - - - - - - -
01/03:00am 21.0 CALM 0 0 1013.1 - 0.0 - - - - - - -
01/02:30am 20.9 CALM 0 0 1013.2 - 0.0 - - - - - - -
01/02:00am 21.9 CALM 0 0 1013.2 - 0.0 - - - - - - -
01/01:30am 22.4 CALM 0 1 1013.3 - 0.0 - - - - - - -
01/01:00am 22.9 SW 1 3 1013.4 - 0.0 - - - - - - -
01/12:30am 24.3 SSW 2 4 1013.5 - 0.0 - - - - - - -
01/12:00am 24.0 SW 1 3 1013.4 - 0.0 - - - - - - -
 
Date/Time
CST
Temp

°C
Wind Pressure Rain
since 9am
mm
Weather Cloud Vis
km
Sea
Height
m
Swell
Dir
 
Speed
knots
Gust
knots
hPa Trend Height
m
Period
s
Dir
31/11:30pm 24.1 SW 1 2 1013.3 - 0.0 - - - - - - -
31/11:00pm 24.2 SW 1 3 1013.5 - 0.0 - - - - - - -
31/10:30pm 22.9 WSW 1 2 1013.3 - 0.0 - - - - - - -
31/10:00pm 22.0 WSW 1 2 1013.3 - 0.0 - - - - - - -
31/09:30pm 22.1 CALM 0 0 1013.0 - 0.0 - - - - - - -
31/09:00pm 22.4 CALM 0 0 1012.9 - 0.0 - - - - - - -
31/08:30pm 23.3 CALM 0 0 1012.5 - 0.0 - - - - - - -
31/08:00pm 24.3 NNW 1 3 1012.2 - 0.0 - - - - - - -
31/07:30pm 25.1 NW 2 4 1011.9 - 0.0 - - - - - - -
31/07:00pm 25.5 WNW 3 4 1011.8 - 0.0 - - - - - - -
31/06:30pm 25.9 WNW 3 6 1011.7 - 0.0 - - - - - - -
31/06:00pm 26.7 W 4 7 1011.6 - 0.0 - - - - - - -
31/05:30pm 27.3 W 5 7 1011.5 - 0.0 - - - - - - -
31/05:00pm 27.7 W 5 8 1011.3 - 0.0 - - - - - - -
31/04:30pm 28.2 WNW 5 8 1011.1 - 0.0 - - - - - - -
31/04:00pm 28.5 NW 4 8 1011.0 - 0.0 - - - - - - -
31/03:30pm 28.6 WNW 5 10 1011.3 - 0.0 - - - - - - -
31/03:00pm 28.7 NW 5 9 1011.7 - 0.0 - - - - - - -
31/02:30pm 28.7 WNW 6 9 1012.1 - 0.0 - - - - - - -
31/02:00pm 29.6 N 6 10 1012.5 - 0.0 - - - - - - -
31/01:30pm 30.2 N 6 9 1013.1 - 0.0 - - - - - - -
31/01:00pm 29.9 NNE 6 9 1013.7 - 0.0 - - - - - - -
31/12:30pm 30.1 NE 5 8 1014.3 - 0.0 - - - - - - -
31/12:00pm 29.1 E 6 10 1014.7 - 0.0 - - - - - - -
31/11:30am 28.6 E 5 10 1015.1 - 0.0 - - - - - - -
31/11:00am 27.8 NE 6 9 1015.4 - 0.0 - - - - - - -
31/10:30am 27.3 ENE 5 7 1015.7 - 0.0 - - - - - - -
31/10:00am 27.4 ENE 5 8 1015.7 - 0.0 - - - - - - -
31/09:30am 26.6 ENE 5 7 1015.9 - 0.0 - - - - - - -
31/09:00am 26.2 E 4 6 1015.6 - 0.0 - - - - - - -
31/08:30am 25.6 E 2 4 1015.5 - 0.0 - - - - - - -
31/08:00am 23.0 CALM 0 0 1015.3 - 0.0 - - - - - - -
31/07:30am 20.6 NE 1 2 1015.1 - 0.0 - - - - - - -
31/07:00am 20.6 NE 1 2 1014.8 - 0.0 - - - - - - -
31/06:30am 21.5 NE 2 4 1014.5 - 0.0 - - - - - - -
31/06:00am 21.2 E 2 3 1014.4 - 0.0 - - - - - - -
31/05:30am 21.7 E 3 4 1014.0 - 0.0 - - - - - - -
31/05:00am 21.5 E 3 4 1014.0 - 0.0 - - - - - - -
31/04:30am 20.0 E 2 3 1014.0 - 0.0 - - - - - - -
31/04:00am 20.4 E 2 3 1013.9 - 0.0 - - - - - - -
31/03:30am 20.3 E 2 3 1014.0 - 0.0 - - - - - - -
31/03:00am 20.2 E 2 3 1014.0 - 0.0 - - - - - - -
31/02:30am 20.3 ESE 2 2 1014.1 - 0.0 - - - - - - -
31/02:00am 20.8 SSE 1 2 1014.2 - 0.0 - - - - - - -
31/01:30am 20.9 CALM 0 0 1014.4 - 0.0 - - - - - - -
31/01:00am 21.8 CALM 0 2 1014.5 - 0.0 - - - - - - -
31/12:30am 22.5 SSE 2 2 1014.5 - 0.0 - - - - - - -
31/12:00am 22.3 SSE 2 2 1014.4 - 0.0 - - - - - - -
 
Date/Time
CST
Temp

°C
Wind Pressure Rain
since 9am
mm
Weather Cloud Vis
km
Sea
Height
m
Swell
Dir
 
Speed
knots
Gust
knots
hPa Trend Height
m
Period
s
Dir
30/11:30pm 22.1 SSE 2 3 1014.5 - 0.0 - - - - - - -
30/11:00pm 21.5 S 2 2 1014.5 - 0.0 - - - - - - -
30/10:30pm 21.3 S 1 2 1014.6 - 0.0 - - - - - - -
30/10:00pm 21.5 S 1 2 1014.5 - 0.0 - - - - - - -
30/09:30pm 21.7 CALM 0 0 1014.4 - 0.0 - - - - - - -
30/09:00pm 21.8 CALM 0 0 1014.3 - 0.0 - - - - - - -
30/08:30pm 22.1 CALM 0 0 1014.1 - 0.0 - - - - - - -
30/08:00pm 22.9 CALM 0 1 1013.8 - 0.0 - - - - - - -
30/07:30pm 24.1 CALM 0 0 1013.4 - 0.0 - - - - - - -
30/07:00pm 25.2 N 2 4 1013.0 - 0.0 - - - - - - -
30/06:30pm 26.0 N 3 6 1012.8 - 0.0 - - - - - - -
30/06:00pm 27.1 NW 4 7 1012.6 - 0.0 - - - - - - -
30/05:30pm 27.6 NW 5 9 1012.4 - 0.0 - - - - - - -
30/05:00pm 28.2 NNW 5 8 1012.2 - 0.0 - - - - - - -
30/04:30pm 28.1 WNW 6 9 1012.1 - 0.0 - - - - - - -
30/04:00pm 29.2 NW 5 9 1011.9 - 0.0 - - - - - - -
30/03:30pm 29.0 WNW 6 10 1011.9 - 0.0 - - - - - - -
30/03:00pm 29.3 WNW 5 11 1012.1 - 0.0 - - - - - - -
30/02:30pm 32.5 ESE 7 12 1012.4 - 0.0 - - - - - - -
30/02:00pm 32.6 E 7 11 1012.9 - 0.0 - - - - - - -

Other Formats:

Comma delimited format used in spreadsheet applications
http://www.bom.gov.au/fwo/IDD60701/IDD60701.94116.axf

JavaScript Object Notation format (JSON) in row-major order
http://www.bom.gov.au/fwo/IDD60701/IDD60701.94116.json